Hauptseite
METAR-TAF:

METAR-TAF

Flughäfen :

Majuro, Majuro Atoll, Marshallinseln

Flughafen Marshallinseln

Breite: 07-04N, Länge: 171-17E, Höhe: 2 m

Beobachtung

Neuester Wetterbericht von vor 13 Stunden und 53 Minuten, um 23:55 UTC
Wind 14 kt aus Nordost
Temperatur 29°C
Luftfeuchtigkeit 79%
Luftdruck 1011 hPa
Sichtweite: 24.1 km
Leicht bewölkt in der Höhe von 1500 ft
Aufgelockert bewölkt in der Höhe von 5000 ft
Durchbrochene Bewölkung in der Höhe von 30000 ft

METAR: PKMJ 272355Z 05014KT 15SM FEW015 SCT050 BKN300 29/25 A2985

Zeit: 01:48 (13:48 UTC)

Prognose

Neuester Wetterbericht von vor 2 Stunden und 21 Minuten, um 11:27 UTC
Gültige Prognose vom 28 um 12 UTC bis 29 um 12 UTC
Wind 13 kt aus Ost/Nordost
Sichtweite: 10 km
Aufgelockert bewölkt in der Höhe von 1600 ft

TAF: PKMJ 281127Z 2812/2912 06013KT P6SM SCT016

Wetterbeobachtungen und Prognosen von mehr als 4000 Flughäfen (METAR und TAF Bericht).

Die verfügbaren Stationen werden durch gelbe und rote Markierungen auf der Karte dargestellt.

Führen Sie die Maus auf sie, um den Namen der Station zu sehen.

Darauf klicken, um die Beobachtung von Wetterbeobachtungen und Prognosen zu sehen.

Um die Karte zu ändern : klicken Sie auf den grünen Tasten mit einem schwarzen Kreuz Zum Vergrößern, auf den grünen Button mit einem Gedankenstrich zu verkleinern, oder auf die grünen Pfeile für benachbarte Karten.


METAR-TAF: